Observations for EAST MIDLANDS, United Kingdom (EGNX)

EGNX 242150Z 27003KT CAVOK 08/04 Q1039  
EGNX 242120Z 30004KT CAVOK 08/04 Q1039  
EGNX 242020Z 29004KT CAVOK 08/04 Q1038  
EGNX 241950Z 28002KT CAVOK 08/04 Q1038  
EGNX 241920Z 29004KT CAVOK 08/04 Q1038  
EGNX 241850Z 30004KT CAVOK 09/04 Q1038  
EGNX 241820Z 31005KT CAVOK 10/04 Q1038  
EGNX 241750Z 31005KT 9999 FEW044 11/04 Q1038
EGNX 241720Z 32007KT 280V350 9999 FEW043 12/04 Q1037
EGNX 241650Z 30009KT 270V340 9999 FEW044 13/04 Q1037
EGNX 241620Z 30005KT 9999 FEW045 13/04 Q1037
EGNX 241550Z 30006KT 9999 FEW044 13/05 Q1037
EGNX 241520Z 29008KT 260V340 9999 SCT043 13/04 Q1037
EGNX 241450Z 29007KT 260V340 9999 BKN043 13/05 Q1037
EGNX 241350Z 32008KT 280V350 9999 SCT039 15/05 Q1038
EGNX 241320Z 30006KT 270V350 9999 SCT040 13/05 Q1038
EGNX 241250Z 33010KT 9999 BKN039 14/05 Q1038
EGNX 241220Z 31007KT 270V350 9999 SCT038 14/05 Q1038
EGNX 241150Z 30009KT 270V340 9999 SCT038 13/04 Q1038
EGNX 241120Z 32011KT 280V350 9999 FEW044 13/03 Q1038
EGNX 241050Z 33008KT CAVOK 13/04 Q1038  
EGNX 241020Z 28006KT 240V310 CAVOK 12/04 Q1038  
EGNX 240950Z 29006KT 260V350 CAVOK 11/04 Q1038  
EGNX 240920Z 31007KT 270V350 CAVOK 10/05 Q1038  
EGNX 240850Z 29007KT CAVOK 09/06 Q1037  
EGNX 240820Z 29009KT CAVOK 08/06 Q1037  
EGNX 240750Z 28008KT CAVOK 07/06 Q1037  
EGNX 240720Z 29006KT 270V330 CAVOK 06/05 Q1036  
EGNX 240650Z 28008KT CAVOK 06/05 Q1036  
EGNX 240620Z 28006KT CAVOK 05/04 Q1035  
EGNX 240550Z 29009KT CAVOK 05/04 Q1035  
EGNX 240520Z 27010KT CAVOK 04/03 Q1035  
EGNX 240450Z 27011KT CAVOK 04/03 Q1035  
EGNX 240420Z 27008KT CAVOK 04/03 Q1035  
EGNX 240350Z 27008KT CAVOK 04/03 Q1034  
EGNX 240320Z 25008KT CAVOK 05/04 Q1034  
EGNX 240250Z 27008KT CAVOK 05/04 Q1034  
EGNX 240220Z 26011KT CAVOK 04/04 Q1034  
EGNX 240150Z 28008KT CAVOK 04/03 Q1033  
EGNX 240120Z 26011KT CAVOK 06/05 Q1033  
EGNX 240050Z 27010KT CAVOK 05/04 Q1033  
EGNX 240020Z 26011KT CAVOK 05/04 Q1032  
EGNX 232350Z 25008KT CAVOK 06/05 Q1031  
EGNX 232320Z 26009KT CAVOK 05/04 Q1031  
EGNX 232250Z 27010KT CAVOK 06/05 Q1031  
EGNX 232220Z 28009KT CAVOK 06/04 Q1030  
EGNX 232150Z 25009KT CAVOK 06/04 Q1030  
EGNX 232120Z 26009KT CAVOK 05/04 Q1030  
EGNX 232050Z 23005KT 200V270 CAVOK 06/04 Q1029